sensor_id;sensor_type;location;lat;lon;timestamp;P1;durP1;ratioP1;P2;durP2;ratioP2
68886;SDS011;55925;51.764;6.402;2023-01-06T00:00:17;15.98;;;6.40;;
68886;SDS011;55925;51.764;6.402;2023-01-06T00:02:43;13.68;;;6.60;;
68886;SDS011;55925;51.764;6.402;2023-01-06T00:05:11;15.15;;;5.72;;
68886;SDS011;55925;51.764;6.402;2023-01-06T00:07:37;13.10;;;4.93;;
68886;SDS011;55925;51.764;6.402;2023-01-06T00:10:03;13.23;;;4.90;;
68886;SDS011;55925;51.764;6.402;2023-01-06T00:12:29;12.15;;;4.97;;
68886;SDS011;55925;51.764;6.402;2023-01-06T00:14:55;13.88;;;5.75;;
68886;SDS011;55925;51.764;6.402;2023-01-06T00:17:22;11.27;;;4.97;;
68886;SDS011;55925;51.764;6.402;2023-01-06T00:19:48;12.57;;;4.50;;
68886;SDS011;55925;51.764;6.402;2023-01-06T00:22:14;8.90;;;3.97;;
68886;SDS011;55925;51.764;6.402;2023-01-06T00:24:40;11.02;;;4.35;;
68886;SDS011;55925;51.764;6.402;2023-01-06T00:27:06;12.68;;;3.83;;
68886;SDS011;55925;51.764;6.402;2023-01-06T00:29:32;10.88;;;4.15;;
68886;SDS011;55925;51.764;6.402;2023-01-06T00:31:59;8.10;;;3.78;;
68886;SDS011;55925;51.764;6.402;2023-01-06T00:34:25;13.55;;;4.90;;
68886;SDS011;55925;51.764;6.402;2023-01-06T00:36:51;11.88;;;4.10;;
68886;SDS011;55925;51.764;6.402;2023-01-06T00:39:17;13.20;;;4.30;;
68886;SDS011;55925;51.764;6.402;2023-01-06T00:41:43;11.48;;;5.40;;
68886;SDS011;55925;51.764;6.402;2023-01-06T00:46:53;8.43;;;3.42;;
68886;SDS011;55925;51.764;6.402;2023-01-06T00:49:20;8.10;;;3.83;;
68886;SDS011;55925;51.764;6.402;2023-01-06T00:51:46;11.52;;;3.90;;
68886;SDS011;55925;51.764;6.402;2023-01-06T00:54:13;8.90;;;3.70;;
68886;SDS011;55925;51.764;6.402;2023-01-06T00:56:40;9.93;;;4.15;;
68886;SDS011;55925;51.764;6.402;2023-01-06T00:59:07;10.43;;;3.75;;
68886;SDS011;55925;51.764;6.402;2023-01-06T01:01:33;8.13;;;3.17;;
68886;SDS011;55925;51.764;6.402;2023-01-06T01:04:00;6.90;;;3.33;;
68886;SDS011;55925;51.764;6.402;2023-01-06T01:06:26;8.88;;;3.53;;
68886;SDS011;55925;51.764;6.402;2023-01-06T01:08:56;7.75;;;3.13;;
68886;SDS011;55925;51.764;6.402;2023-01-06T01:11:22;8.88;;;3.15;;
68886;SDS011;55925;51.764;6.402;2023-01-06T01:14:07;6.00;;;2.90;;
68886;SDS011;55925;51.764;6.402;2023-01-06T01:16:34;7.88;;;3.03;;
68886;SDS011;55925;51.764;6.402;2023-01-06T01:19:00;9.35;;;3.80;;
68886;SDS011;55925;51.764;6.402;2023-01-06T01:21:25;8.45;;;4.93;;
68886;SDS011;55925;51.764;6.402;2023-01-06T01:23:51;11.00;;;4.80;;
68886;SDS011;55925;51.764;6.402;2023-01-06T01:26:17;10.90;;;5.00;;
68886;SDS011;55925;51.764;6.402;2023-01-06T01:28:43;10.13;;;4.70;;
68886;SDS011;55925;51.764;6.402;2023-01-06T01:31:09;10.98;;;3.92;;
68886;SDS011;55925;51.764;6.402;2023-01-06T01:33:37;10.60;;;4.20;;
68886;SDS011;55925;51.764;6.402;2023-01-06T01:36:11;8.85;;;3.70;;
68886;SDS011;55925;51.764;6.402;2023-01-06T01:38:37;7.82;;;3.10;;
68886;SDS011;55925;51.764;6.402;2023-01-06T01:41:03;6.70;;;3.33;;
68886;SDS011;55925;51.764;6.402;2023-01-06T01:43:43;7.68;;;2.30;;
68886;SDS011;55925;51.764;6.402;2023-01-06T01:46:09;7.07;;;2.95;;
68886;SDS011;55925;51.764;6.402;2023-01-06T01:48:36;7.45;;;2.40;;
68886;SDS011;55925;51.764;6.402;2023-01-06T01:51:03;7.70;;;2.13;;
68886;SDS011;55925;51.764;6.402;2023-01-06T01:53:35;7.35;;;2.58;;
68886;SDS011;55925;51.764;6.402;2023-01-06T01:56:05;6.90;;;2.22;;
68886;SDS011;55925;51.764;6.402;2023-01-06T01:58:39;7.13;;;2.85;;
68886;SDS011;55925;51.764;6.402;2023-01-06T02:01:07;11.55;;;2.80;;
68886;SDS011;55925;51.764;6.402;2023-01-06T02:03:33;7.32;;;2.50;;
68886;SDS011;55925;51.764;6.402;2023-01-06T02:06:00;6.10;;;2.00;;
68886;SDS011;55925;51.764;6.402;2023-01-06T02:08:40;7.22;;;2.33;;
68886;SDS011;55925;51.764;6.402;2023-01-06T02:11:07;6.10;;;2.60;;
68886;SDS011;55925;51.764;6.402;2023-01-06T02:13:34;6.72;;;2.60;;
68886;SDS011;55925;51.764;6.402;2023-01-06T02:16:08;8.82;;;3.25;;
68886;SDS011;55925;51.764;6.402;2023-01-06T02:18:44;8.65;;;3.42;;
68886;SDS011;55925;51.764;6.402;2023-01-06T02:21:15;7.32;;;2.90;;
68886;SDS011;55925;51.764;6.402;2023-01-06T02:23:54;7.45;;;3.15;;
68886;SDS011;55925;51.764;6.402;2023-01-06T02:34:00;8.35;;;3.28;;
68886;SDS011;55925;51.764;6.402;2023-01-06T02:37:30;6.70;;;3.05;;
68886;SDS011;55925;51.764;6.402;2023-01-06T02:39:32;5.90;;;3.28;;
68886;SDS011;55925;51.764;6.402;2023-01-06T02:47:15;8.90;;;4.88;;
68886;SDS011;55925;51.764;6.402;2023-01-06T02:52:19;6.47;;;3.33;;
68886;SDS011;55925;51.764;6.402;2023-01-06T02:54:57;6.72;;;2.95;;
68886;SDS011;55925;51.764;6.402;2023-01-06T02:59:55;6.20;;;2.10;;
68886;SDS011;55925;51.764;6.402;2023-01-06T03:02:23;6.03;;;1.92;;
68886;SDS011;55925;51.764;6.402;2023-01-06T03:04:50;5.28;;;1.90;;
68886;SDS011;55925;51.764;6.402;2023-01-06T03:07:17;5.85;;;1.52;;
68886;SDS011;55925;51.764;6.402;2023-01-06T03:09:45;5.72;;;1.63;;
68886;SDS011;55925;51.764;6.402;2023-01-06T03:12:16;7.00;;;1.70;;
68886;SDS011;55925;51.764;6.402;2023-01-06T03:14:46;4.10;;;1.33;;
68886;SDS011;55925;51.764;6.402;2023-01-06T03:17:13;5.32;;;1.90;;
68886;SDS011;55925;51.764;6.402;2023-01-06T03:19:39;7.13;;;1.77;;
68886;SDS011;55925;51.764;6.402;2023-01-06T03:22:05;5.18;;;1.63;;
68886;SDS011;55925;51.764;6.402;2023-01-06T03:24:33;5.55;;;1.52;;
68886;SDS011;55925;51.764;6.402;2023-01-06T03:27:00;4.72;;;1.35;;
68886;SDS011;55925;51.764;6.402;2023-01-06T03:29:26;8.38;;;1.85;;
68886;SDS011;55925;51.764;6.402;2023-01-06T03:32:00;5.78;;;1.80;;
68886;SDS011;55925;51.764;6.402;2023-01-06T03:42:41;6.57;;;1.73;;
68886;SDS011;55925;51.764;6.402;2023-01-06T03:45:37;4.90;;;1.52;;
68886;SDS011;55925;51.764;6.402;2023-01-06T03:50:48;5.32;;;1.65;;
68886;SDS011;55925;51.764;6.402;2023-01-06T03:53:17;4.03;;;1.27;;
68886;SDS011;55925;51.764;6.402;2023-01-06T03:55:46;4.07;;;1.50;;
68886;SDS011;55925;51.764;6.402;2023-01-06T03:58:13;6.75;;;2.05;;
68886;SDS011;55925;51.764;6.402;2023-01-06T04:00:41;5.55;;;1.95;;
68886;SDS011;55925;51.764;6.402;2023-01-06T04:03:08;4.70;;;1.50;;
68886;SDS011;55925;51.764;6.402;2023-01-06T04:05:34;5.78;;;1.60;;
68886;SDS011;55925;51.764;6.402;2023-01-06T04:08:00;8.60;;;1.85;;
68886;SDS011;55925;51.764;6.402;2023-01-06T04:10:26;5.63;;;1.67;;
68886;SDS011;55925;51.764;6.402;2023-01-06T04:12:52;4.53;;;1.90;;
68886;SDS011;55925;51.764;6.402;2023-01-06T04:15:27;5.70;;;1.38;;
68886;SDS011;55925;51.764;6.402;2023-01-06T04:17:53;6.38;;;1.52;;
68886;SDS011;55925;51.764;6.402;2023-01-06T04:20:24;5.10;;;1.52;;
68886;SDS011;55925;51.764;6.402;2023-01-06T04:22:54;6.07;;;1.33;;
68886;SDS011;55925;51.764;6.402;2023-01-06T04:25:20;5.88;;;1.52;;
68886;SDS011;55925;51.764;6.402;2023-01-06T04:27:46;5.68;;;1.48;;
68886;SDS011;55925;51.764;6.402;2023-01-06T04:30:12;7.75;;;1.80;;
68886;SDS011;55925;51.764;6.402;2023-01-06T04:32:38;4.45;;;1.40;;
68886;SDS011;55925;51.764;6.402;2023-01-06T04:35:05;5.43;;;1.60;;
68886;SDS011;55925;51.764;6.402;2023-01-06T04:37:31;4.60;;;1.50;;
68886;SDS011;55925;51.764;6.402;2023-01-06T04:39:58;4.40;;;1.25;;
68886;SDS011;55925;51.764;6.402;2023-01-06T04:42:24;5.35;;;1.20;;
68886;SDS011;55925;51.764;6.402;2023-01-06T04:44:50;3.42;;;1.52;;
68886;SDS011;55925;51.764;6.402;2023-01-06T04:47:16;4.47;;;1.15;;
68886;SDS011;55925;51.764;6.402;2023-01-06T04:49:42;5.43;;;1.70;;
68886;SDS011;55925;51.764;6.402;2023-01-06T04:52:08;4.70;;;1.50;;
68886;SDS011;55925;51.764;6.402;2023-01-06T04:54:34;3.63;;;1.30;;
68886;SDS011;55925;51.764;6.402;2023-01-06T04:57:00;5.90;;;1.80;;
68886;SDS011;55925;51.764;6.402;2023-01-06T04:59:26;7.25;;;1.73;;
68886;SDS011;55925;51.764;6.402;2023-01-06T05:01:52;3.95;;;1.30;;
68886;SDS011;55925;51.764;6.402;2023-01-06T05:04:18;6.25;;;1.50;;
68886;SDS011;55925;51.764;6.402;2023-01-06T05:06:44;5.63;;;1.58;;
68886;SDS011;55925;51.764;6.402;2023-01-06T05:09:11;4.68;;;1.58;;
68886;SDS011;55925;51.764;6.402;2023-01-06T05:11:37;5.82;;;1.73;;
68886;SDS011;55925;51.764;6.402;2023-01-06T05:14:02;5.80;;;1.90;;
68886;SDS011;55925;51.764;6.402;2023-01-06T05:16:30;4.20;;;1.80;;
68886;SDS011;55925;51.764;6.402;2023-01-06T05:18:56;5.28;;;1.88;;
68886;SDS011;55925;51.764;6.402;2023-01-06T05:21:23;6.82;;;1.83;;
68886;SDS011;55925;51.764;6.402;2023-01-06T05:23:50;5.28;;;1.60;;
68886;SDS011;55925;51.764;6.402;2023-01-06T05:26:20;6.28;;;1.80;;
68886;SDS011;55925;51.764;6.402;2023-01-06T05:28:46;3.70;;;1.63;;
68886;SDS011;55925;51.764;6.402;2023-01-06T05:31:13;6.03;;;1.70;;
68886;SDS011;55925;51.764;6.402;2023-01-06T05:33:39;4.38;;;1.75;;
68886;SDS011;55925;51.764;6.402;2023-01-06T05:36:06;6.80;;;1.83;;
68886;SDS011;55925;51.764;6.402;2023-01-06T05:38:33;9.88;;;1.80;;
68886;SDS011;55925;51.764;6.402;2023-01-06T05:40:59;5.35;;;1.80;;
68886;SDS011;55925;51.764;6.402;2023-01-06T05:43:25;6.30;;;1.75;;
68886;SDS011;55925;51.764;6.402;2023-01-06T05:45:52;3.25;;;1.25;;
68886;SDS011;55925;51.764;6.402;2023-01-06T05:48:18;5.68;;;1.60;;
68886;SDS011;55925;51.764;6.402;2023-01-06T05:50:44;4.60;;;1.40;;
68886;SDS011;55925;51.764;6.402;2023-01-06T05:53:10;5.40;;;1.63;;
68886;SDS011;55925;51.764;6.402;2023-01-06T05:55:36;5.60;;;1.95;;
68886;SDS011;55925;51.764;6.402;2023-01-06T05:58:02;6.88;;;1.40;;
68886;SDS011;55925;51.764;6.402;2023-01-06T06:00:28;4.50;;;1.55;;
68886;SDS011;55925;51.764;6.402;2023-01-06T06:02:54;6.53;;;1.60;;
68886;SDS011;55925;51.764;6.402;2023-01-06T06:05:20;4.03;;;1.27;;
68886;SDS011;55925;51.764;6.402;2023-01-06T06:07:56;4.53;;;1.30;;
68886;SDS011;55925;51.764;6.402;2023-01-06T06:10:22;3.45;;;1.30;;
68886;SDS011;55925;51.764;6.402;2023-01-06T06:12:51;4.40;;;1.52;;
68886;SDS011;55925;51.764;6.402;2023-01-06T06:15:17;5.93;;;1.70;;
68886;SDS011;55925;51.764;6.402;2023-01-06T06:17:44;4.20;;;1.83;;
68886;SDS011;55925;51.764;6.402;2023-01-06T06:20:10;5.53;;;1.77;;
68886;SDS011;55925;51.764;6.402;2023-01-06T06:22:36;4.82;;;1.85;;
68886;SDS011;55925;51.764;6.402;2023-01-06T06:25:02;3.90;;;1.80;;
68886;SDS011;55925;51.764;6.402;2023-01-06T06:27:28;4.03;;;1.63;;
68886;SDS011;55925;51.764;6.402;2023-01-06T06:29:54;3.95;;;1.50;;
68886;SDS011;55925;51.764;6.402;2023-01-06T06:32:20;4.38;;;1.65;;
68886;SDS011;55925;51.764;6.402;2023-01-06T06:34:46;5.05;;;2.00;;
68886;SDS011;55925;51.764;6.402;2023-01-06T06:37:12;3.92;;;1.85;;
68886;SDS011;55925;51.764;6.402;2023-01-06T06:39:38;5.55;;;1.92;;
68886;SDS011;55925;51.764;6.402;2023-01-06T06:42:04;5.25;;;1.63;;
68886;SDS011;55925;51.764;6.402;2023-01-06T06:44:30;6.85;;;2.30;;
68886;SDS011;55925;51.764;6.402;2023-01-06T06:46:57;5.82;;;2.40;;
68886;SDS011;55925;51.764;6.402;2023-01-06T06:49:23;6.05;;;3.17;;
68886;SDS011;55925;51.764;6.402;2023-01-06T06:51:49;5.65;;;2.13;;
68886;SDS011;55925;51.764;6.402;2023-01-06T06:54:15;5.03;;;2.50;;
68886;SDS011;55925;51.764;6.402;2023-01-06T06:56:41;7.22;;;2.83;;
68886;SDS011;55925;51.764;6.402;2023-01-06T06:59:07;9.43;;;3.90;;
68886;SDS011;55925;51.764;6.402;2023-01-06T07:01:33;6.00;;;2.95;;
68886;SDS011;55925;51.764;6.402;2023-01-06T07:03:59;5.43;;;2.25;;
68886;SDS011;55925;51.764;6.402;2023-01-06T07:06:25;5.65;;;2.55;;
68886;SDS011;55925;51.764;6.402;2023-01-06T07:08:52;6.70;;;3.10;;
68886;SDS011;55925;51.764;6.402;2023-01-06T07:11:18;6.25;;;3.00;;
68886;SDS011;55925;51.764;6.402;2023-01-06T07:13:44;7.50;;;2.85;;
68886;SDS011;55925;51.764;6.402;2023-01-06T07:16:10;6.47;;;3.17;;
68886;SDS011;55925;51.764;6.402;2023-01-06T07:18:36;5.93;;;3.10;;
68886;SDS011;55925;51.764;6.402;2023-01-06T07:21:03;6.60;;;3.45;;
68886;SDS011;55925;51.764;6.402;2023-01-06T07:23:29;5.78;;;2.80;;
68886;SDS011;55925;51.764;6.402;2023-01-06T07:25:56;6.55;;;2.70;;
68886;SDS011;55925;51.764;6.402;2023-01-06T07:28:23;5.43;;;2.97;;
68886;SDS011;55925;51.764;6.402;2023-01-06T07:30:50;6.97;;;3.53;;
68886;SDS011;55925;51.764;6.402;2023-01-06T07:33:16;7.28;;;2.83;;
68886;SDS011;55925;51.764;6.402;2023-01-06T07:35:42;6.57;;;3.25;;
68886;SDS011;55925;51.764;6.402;2023-01-06T07:38:08;9.60;;;3.95;;
68886;SDS011;55925;51.764;6.402;2023-01-06T07:40:35;7.88;;;3.95;;
68886;SDS011;55925;51.764;6.402;2023-01-06T07:43:05;7.15;;;3.90;;
68886;SDS011;55925;51.764;6.402;2023-01-06T07:45:31;6.10;;;3.65;;
68886;SDS011;55925;51.764;6.402;2023-01-06T07:47:57;6.75;;;3.58;;
68886;SDS011;55925;51.764;6.402;2023-01-06T07:50:23;9.07;;;3.75;;
68886;SDS011;55925;51.764;6.402;2023-01-06T07:52:49;5.97;;;3.47;;
68886;SDS011;55925;51.764;6.402;2023-01-06T07:55:15;7.07;;;4.13;;
68886;SDS011;55925;51.764;6.402;2023-01-06T07:57:41;6.95;;;2.97;;
68886;SDS011;55925;51.764;6.402;2023-01-06T08:00:07;8.18;;;3.67;;
68886;SDS011;55925;51.764;6.402;2023-01-06T08:02:33;6.13;;;2.83;;
68886;SDS011;55925;51.764;6.402;2023-01-06T08:04:59;5.20;;;2.30;;
68886;SDS011;55925;51.764;6.402;2023-01-06T08:07:25;5.63;;;2.03;;
68886;SDS011;55925;51.764;6.402;2023-01-06T08:09:51;4.65;;;2.05;;
68886;SDS011;55925;51.764;6.402;2023-01-06T08:12:17;5.85;;;2.30;;
68886;SDS011;55925;51.764;6.402;2023-01-06T08:14:43;5.22;;;2.05;;
68886;SDS011;55925;51.764;6.402;2023-01-06T08:17:09;6.20;;;2.30;;
68886;SDS011;55925;51.764;6.402;2023-01-06T08:19:35;4.20;;;2.20;;
68886;SDS011;55925;51.764;6.402;2023-01-06T08:22:02;4.97;;;2.13;;
68886;SDS011;55925;51.764;6.402;2023-01-06T08:24:28;6.00;;;2.40;;
68886;SDS011;55925;51.764;6.402;2023-01-06T08:26:56;6.18;;;2.45;;
68886;SDS011;55925;51.764;6.402;2023-01-06T08:29:23;5.78;;;2.40;;
68886;SDS011;55925;51.764;6.402;2023-01-06T08:31:49;5.30;;;2.30;;
68886;SDS011;55925;51.764;6.402;2023-01-06T08:34:15;5.10;;;3.17;;
68886;SDS011;55925;51.764;6.402;2023-01-06T08:36:42;7.60;;;3.45;;
68886;SDS011;55925;51.764;6.402;2023-01-06T08:39:08;9.13;;;3.40;;
68886;SDS011;55925;51.764;6.402;2023-01-06T08:41:35;7.60;;;4.20;;
68886;SDS011;55925;51.764;6.402;2023-01-06T08:44:01;5.95;;;3.00;;
68886;SDS011;55925;51.764;6.402;2023-01-06T08:46:27;7.32;;;2.88;;
68886;SDS011;55925;51.764;6.402;2023-01-06T08:48:54;6.07;;;2.50;;
68886;SDS011;55925;51.764;6.402;2023-01-06T08:51:21;7.53;;;3.10;;
68886;SDS011;55925;51.764;6.402;2023-01-06T08:53:48;5.10;;;2.90;;
68886;SDS011;55925;51.764;6.402;2023-01-06T08:56:16;5.95;;;2.83;;
68886;SDS011;55925;51.764;6.402;2023-01-06T08:58:42;8.43;;;2.72;;
68886;SDS011;55925;51.764;6.402;2023-01-06T09:01:15;7.38;;;2.90;;
68886;SDS011;55925;51.764;6.402;2023-01-06T09:03:41;5.53;;;2.80;;
68886;SDS011;55925;51.764;6.402;2023-01-06T09:06:07;6.47;;;3.03;;
68886;SDS011;55925;51.764;6.402;2023-01-06T09:08:33;5.80;;;3.08;;
68886;SDS011;55925;51.764;6.402;2023-01-06T09:11:03;6.10;;;2.78;;
68886;SDS011;55925;51.764;6.402;2023-01-06T09:13:29;6.20;;;2.58;;
68886;SDS011;55925;51.764;6.402;2023-01-06T09:15:55;6.85;;;3.20;;
68886;SDS011;55925;51.764;6.402;2023-01-06T09:18:21;5.53;;;2.95;;
68886;SDS011;55925;51.764;6.402;2023-01-06T09:20:47;6.50;;;3.40;;
68886;SDS011;55925;51.764;6.402;2023-01-06T09:23:13;5.60;;;3.13;;
68886;SDS011;55925;51.764;6.402;2023-01-06T09:25:39;5.38;;;3.03;;
68886;SDS011;55925;51.764;6.402;2023-01-06T09:28:05;5.57;;;3.08;;
68886;SDS011;55925;51.764;6.402;2023-01-06T09:30:31;7.70;;;3.65;;
68886;SDS011;55925;51.764;6.402;2023-01-06T09:32:57;5.47;;;3.03;;
68886;SDS011;55925;51.764;6.402;2023-01-06T09:35:23;6.13;;;3.55;;
68886;SDS011;55925;51.764;6.402;2023-01-06T09:37:49;7.90;;;3.13;;
68886;SDS011;55925;51.764;6.402;2023-01-06T09:40:20;5.55;;;3.03;;
68886;SDS011;55925;51.764;6.402;2023-01-06T09:45:52;8.85;;;3.42;;
68886;SDS011;55925;51.764;6.402;2023-01-06T09:48:20;6.47;;;3.80;;
68886;SDS011;55925;51.764;6.402;2023-01-06T09:50:55;6.32;;;3.45;;
68886;SDS011;55925;51.764;6.402;2023-01-06T09:53:28;6.07;;;3.42;;
68886;SDS011;55925;51.764;6.402;2023-01-06T09:55:55;6.30;;;3.80;;
68886;SDS011;55925;51.764;6.402;2023-01-06T09:58:30;6.88;;;3.83;;
68886;SDS011;55925;51.764;6.402;2023-01-06T10:00:57;6.88;;;3.67;;
68886;SDS011;55925;51.764;6.402;2023-01-06T10:03:26;6.30;;;3.40;;
68886;SDS011;55925;51.764;6.402;2023-01-06T10:06:06;7.53;;;3.97;;
68886;SDS011;55925;51.764;6.402;2023-01-06T10:11:41;9.02;;;3.92;;
68886;SDS011;55925;51.764;6.402;2023-01-06T10:16:38;6.35;;;3.40;;
68886;SDS011;55925;51.764;6.402;2023-01-06T10:29:47;6.88;;;3.67;;
68886;SDS011;55925;51.764;6.402;2023-01-06T10:32:14;5.60;;;3.42;;
68886;SDS011;55925;51.764;6.402;2023-01-06T10:34:41;7.57;;;4.00;;
68886;SDS011;55925;51.764;6.402;2023-01-06T10:39:34;6.93;;;3.70;;
68886;SDS011;55925;51.764;6.402;2023-01-06T10:42:16;6.63;;;3.53;;
68886;SDS011;55925;51.764;6.402;2023-01-06T10:45:03;10.00;;;3.90;;
68886;SDS011;55925;51.764;6.402;2023-01-06T10:47:30;7.07;;;3.95;;
68886;SDS011;55925;51.764;6.402;2023-01-06T10:49:56;7.28;;;3.72;;
68886;SDS011;55925;51.764;6.402;2023-01-06T10:52:23;9.02;;;3.97;;
68886;SDS011;55925;51.764;6.402;2023-01-06T10:54:51;8.70;;;4.35;;
68886;SDS011;55925;51.764;6.402;2023-01-06T10:57:22;7.00;;;4.32;;
68886;SDS011;55925;51.764;6.402;2023-01-06T11:00:10;6.15;;;3.75;;
68886;SDS011;55925;51.764;6.402;2023-01-06T11:02:50;6.55;;;3.50;;
68886;SDS011;55925;51.764;6.402;2023-01-06T11:05:17;10.30;;;4.13;;
68886;SDS011;55925;51.764;6.402;2023-01-06T11:07:45;7.65;;;4.30;;
68886;SDS011;55925;51.764;6.402;2023-01-06T11:10:12;8.80;;;3.97;;
68886;SDS011;55925;51.764;6.402;2023-01-06T11:12:45;8.82;;;4.18;;
68886;SDS011;55925;51.764;6.402;2023-01-06T11:15:15;7.05;;;4.03;;
68886;SDS011;55925;51.764;6.402;2023-01-06T11:22:41;7.78;;;3.97;;
68886;SDS011;55925;51.764;6.402;2023-01-06T11:27:45;8.00;;;4.65;;
68886;SDS011;55925;51.764;6.402;2023-01-06T11:30:24;9.00;;;4.72;;
68886;SDS011;55925;51.764;6.402;2023-01-06T11:32:51;9.57;;;5.00;;
68886;SDS011;55925;51.764;6.402;2023-01-06T11:35:18;9.88;;;4.68;;
68886;SDS011;55925;51.764;6.402;2023-01-06T11:37:45;9.05;;;4.85;;
68886;SDS011;55925;51.764;6.402;2023-01-06T11:40:27;7.60;;;4.40;;
68886;SDS011;55925;51.764;6.402;2023-01-06T11:42:54;8.80;;;4.50;;
68886;SDS011;55925;51.764;6.402;2023-01-06T11:45:30;8.68;;;4.70;;
68886;SDS011;55925;51.764;6.402;2023-01-06T11:47:58;9.52;;;3.92;;
68886;SDS011;55925;51.764;6.402;2023-01-06T11:50:24;8.32;;;4.60;;
68886;SDS011;55925;51.764;6.402;2023-01-06T11:52:58;8.98;;;4.22;;
68886;SDS011;55925;51.764;6.402;2023-01-06T11:55:24;6.90;;;2.25;;
68886;SDS011;55925;51.764;6.402;2023-01-06T12:03:13;4.35;;;1.27;;
68886;SDS011;55925;51.764;6.402;2023-01-06T12:08:12;4.72;;;1.55;;
68886;SDS011;55925;51.764;6.402;2023-01-06T12:10:39;8.02;;;2.17;;
68886;SDS011;55925;51.764;6.402;2023-01-06T12:13:07;5.47;;;1.65;;
68886;SDS011;55925;51.764;6.402;2023-01-06T12:15:34;4.93;;;1.80;;
68886;SDS011;55925;51.764;6.402;2023-01-06T12:18:02;4.35;;;1.45;;
68886;SDS011;55925;51.764;6.402;2023-01-06T12:20:29;4.32;;;1.42;;
68886;SDS011;55925;51.764;6.402;2023-01-06T12:23:00;6.68;;;1.58;;
68886;SDS011;55925;51.764;6.402;2023-01-06T12:27:59;5.20;;;1.40;;
68886;SDS011;55925;51.764;6.402;2023-01-06T12:32:53;8.88;;;2.25;;
68886;SDS011;55925;51.764;6.402;2023-01-06T12:35:23;3.60;;;1.90;;
68886;SDS011;55925;51.764;6.402;2023-01-06T12:37:58;8.20;;;2.88;;
68886;SDS011;55925;51.764;6.402;2023-01-06T12:41:00;6.65;;;2.30;;
68886;SDS011;55925;51.764;6.402;2023-01-06T12:43:19;5.80;;;2.35;;
68886;SDS011;55925;51.764;6.402;2023-01-06T12:46:01;4.63;;;1.95;;
68886;SDS011;55925;51.764;6.402;2023-01-06T12:51:10;8.48;;;2.85;;
68886;SDS011;55925;51.764;6.402;2023-01-06T12:53:50;7.68;;;3.17;;
68886;SDS011;55925;51.764;6.402;2023-01-06T12:56:28;7.38;;;3.35;;
68886;SDS011;55925;51.764;6.402;2023-01-06T13:01:27;7.90;;;4.07;;
68886;SDS011;55925;51.764;6.402;2023-01-06T13:06:48;8.52;;;3.83;;
68886;SDS011;55925;51.764;6.402;2023-01-06T13:11:49;7.20;;;3.95;;
68886;SDS011;55925;51.764;6.402;2023-01-06T13:16:52;8.60;;;3.88;;
68886;SDS011;55925;51.764;6.402;2023-01-06T13:22:06;8.90;;;3.78;;
68886;SDS011;55925;51.764;6.402;2023-01-06T13:24:36;6.55;;;3.42;;
68886;SDS011;55925;51.764;6.402;2023-01-06T13:37:32;7.90;;;3.78;;
68886;SDS011;55925;51.764;6.402;2023-01-06T13:40:01;10.55;;;4.82;;
68886;SDS011;55925;51.764;6.402;2023-01-06T13:42:33;9.52;;;4.68;;
68886;SDS011;55925;51.764;6.402;2023-01-06T13:45:00;7.63;;;4.43;;
68886;SDS011;55925;51.764;6.402;2023-01-06T13:47:26;8.32;;;4.60;;
68886;SDS011;55925;51.764;6.402;2023-01-06T13:49:52;8.25;;;4.75;;
68886;SDS011;55925;51.764;6.402;2023-01-06T13:52:21;10.35;;;4.85;;
68886;SDS011;55925;51.764;6.402;2023-01-06T13:59:47;7.00;;;4.55;;
68886;SDS011;55925;51.764;6.402;2023-01-06T14:05:04;8.23;;;4.60;;
68886;SDS011;55925;51.764;6.402;2023-01-06T14:07:36;9.05;;;4.32;;
68886;SDS011;55925;51.764;6.402;2023-01-06T14:10:04;9.35;;;5.00;;
68886;SDS011;55925;51.764;6.402;2023-01-06T14:12:32;21.80;;;11.32;;
68886;SDS011;55925;51.764;6.402;2023-01-06T14:15:00;11.63;;;4.78;;
68886;SDS011;55925;51.764;6.402;2023-01-06T14:17:29;8.75;;;4.75;;
68886;SDS011;55925;51.764;6.402;2023-01-06T14:19:55;10.63;;;5.32;;
68886;SDS011;55925;51.764;6.402;2023-01-06T14:22:22;10.75;;;4.70;;
68886;SDS011;55925;51.764;6.402;2023-01-06T14:24:53;11.77;;;5.63;;
68886;SDS011;55925;51.764;6.402;2023-01-06T14:30:17;9.93;;;4.70;;
68886;SDS011;55925;51.764;6.402;2023-01-06T14:35:11;9.60;;;4.57;;
68886;SDS011;55925;51.764;6.402;2023-01-06T14:37:48;8.15;;;4.53;;
68886;SDS011;55925;51.764;6.402;2023-01-06T14:40:17;8.73;;;4.65;;
68886;SDS011;55925;51.764;6.402;2023-01-06T14:42:44;11.90;;;5.03;;
68886;SDS011;55925;51.764;6.402;2023-01-06T14:45:18;9.15;;;4.22;;
68886;SDS011;55925;51.764;6.402;2023-01-06T14:47:47;9.88;;;4.50;;
68886;SDS011;55925;51.764;6.402;2023-01-06T14:50:15;11.32;;;5.15;;
68886;SDS011;55925;51.764;6.402;2023-01-06T14:52:49;7.47;;;4.15;;
68886;SDS011;55925;51.764;6.402;2023-01-06T14:55:19;7.85;;;3.70;;
68886;SDS011;55925;51.764;6.402;2023-01-06T14:57:45;8.93;;;3.90;;
68886;SDS011;55925;51.764;6.402;2023-01-06T15:00:19;7.45;;;4.03;;
68886;SDS011;55925;51.764;6.402;2023-01-06T15:02:49;8.52;;;3.88;;
68886;SDS011;55925;51.764;6.402;2023-01-06T15:05:20;7.80;;;3.67;;
68886;SDS011;55925;51.764;6.402;2023-01-06T15:10:21;7.90;;;4.07;;
68886;SDS011;55925;51.764;6.402;2023-01-06T15:12:50;11.57;;;3.88;;
68886;SDS011;55925;51.764;6.402;2023-01-06T15:15:27;7.40;;;3.75;;
68886;SDS011;55925;51.764;6.402;2023-01-06T15:17:54;7.00;;;3.47;;
68886;SDS011;55925;51.764;6.402;2023-01-06T15:20:41;10.45;;;3.50;;
68886;SDS011;55925;51.764;6.402;2023-01-06T15:23:06;6.50;;;3.03;;
68886;SDS011;55925;51.764;6.402;2023-01-06T15:25:34;5.82;;;2.92;;
68886;SDS011;55925;51.764;6.402;2023-01-06T15:28:01;7.43;;;2.85;;
68886;SDS011;55925;51.764;6.402;2023-01-06T15:30:27;7.90;;;2.95;;
68886;SDS011;55925;51.764;6.402;2023-01-06T15:32:58;6.72;;;2.63;;
68886;SDS011;55925;51.764;6.402;2023-01-06T15:35:26;5.07;;;2.33;;
68886;SDS011;55925;51.764;6.402;2023-01-06T15:38:11;5.55;;;2.55;;
68886;SDS011;55925;51.764;6.402;2023-01-06T15:40:40;7.18;;;2.40;;
68886;SDS011;55925;51.764;6.402;2023-01-06T15:43:07;6.07;;;2.22;;
68886;SDS011;55925;51.764;6.402;2023-01-06T15:45:33;8.82;;;2.80;;
68886;SDS011;55925;51.764;6.402;2023-01-06T15:48:00;5.72;;;2.47;;
68886;SDS011;55925;51.764;6.402;2023-01-06T15:50:27;8.27;;;3.25;;
68886;SDS011;55925;51.764;6.402;2023-01-06T15:52:59;7.95;;;3.20;;
68886;SDS011;55925;51.764;6.402;2023-01-06T16:00:58;6.05;;;2.88;;
68886;SDS011;55925;51.764;6.402;2023-01-06T16:03:25;7.88;;;3.67;;
68886;SDS011;55925;51.764;6.402;2023-01-06T16:06:02;6.00;;;3.13;;
68886;SDS011;55925;51.764;6.402;2023-01-06T16:08:29;6.53;;;3.40;;
68886;SDS011;55925;51.764;6.402;2023-01-06T16:14:28;8.93;;;3.42;;
68886;SDS011;55925;51.764;6.402;2023-01-06T16:17:06;6.63;;;3.30;;
68886;SDS011;55925;51.764;6.402;2023-01-06T16:19:33;6.18;;;3.40;;
68886;SDS011;55925;51.764;6.402;2023-01-06T16:22:06;8.55;;;3.53;;
68886;SDS011;55925;51.764;6.402;2023-01-06T16:24:33;8.23;;;4.20;;
68886;SDS011;55925;51.764;6.402;2023-01-06T16:27:00;6.63;;;3.65;;
68886;SDS011;55925;51.764;6.402;2023-01-06T16:29:32;8.60;;;3.50;;
68886;SDS011;55925;51.764;6.402;2023-01-06T16:34:47;6.63;;;3.20;;
68886;SDS011;55925;51.764;6.402;2023-01-06T16:37:15;6.68;;;3.17;;
68886;SDS011;55925;51.764;6.402;2023-01-06T16:39:40;7.50;;;3.70;;
68886;SDS011;55925;51.764;6.402;2023-01-06T16:44:58;7.38;;;3.92;;
68886;SDS011;55925;51.764;6.402;2023-01-06T16:47:24;7.32;;;3.90;;
68886;SDS011;55925;51.764;6.402;2023-01-06T16:49:50;7.93;;;4.03;;
68886;SDS011;55925;51.764;6.402;2023-01-06T16:52:17;7.20;;;4.28;;
68886;SDS011;55925;51.764;6.402;2023-01-06T16:54:43;9.25;;;4.63;;
68886;SDS011;55925;51.764;6.402;2023-01-06T16:57:09;8.63;;;4.50;;
68886;SDS011;55925;51.764;6.402;2023-01-06T16:59:35;8.13;;;4.78;;
68886;SDS011;55925;51.764;6.402;2023-01-06T17:02:09;7.82;;;4.85;;